CYDP/YDP METAR and TAF weather

Enter ICAO airport designator
Station Type Date Time Source
CYDP METAR 2018/10/22 16:00 UTC NOAA

CYDP 221600Z 01027G35KT 11SM -SHSN OVC018 M00/M04 A2984 RMK SC8 SLP105


Station Type Date Time Source
CYDP Decoded METAR 2018/10/22 16:00 UTC NOAA

Nain, Nfld, Canada (CYDP) 56-33N 061-41W 7M
Oct 22, 2018 - 12:00 PM EDT / 2018.10.22 1600 UTC
Wind: from the N (010 degrees) at 31 MPH (27 KT) gusting to 40 MPH (35 KT):0
Visibility: 11 mile(s):0
Sky conditions: overcast
Weather: light snow showers
Temperature: 32 F (0 C)
Windchill: 17 F (-8 C):1
Dew Point: 24 F (-4 C)
Relative Humidity: 74%
Pressure (altimeter): 29.84 in. Hg (1010 hPa)
ob: CYDP 221600Z 01027G35KT 11SM -SHSN OVC018 M00/M04 A2984 RMK SC8 SLP105
cycle: 16

Station Type Date Time Source
CYDP TAF 2018/10/22 14:00 UTC NOAA

TAF CYDP 221341Z 2214/2223 36020G30KT 6SM -SN OVC020
TEMPO 2214/2216 2SM -SHSN OVC012
FM221600 02025G35KT P6SM -SHSN OVC030
TEMPO 2216/2221 5SM -SN OVC020
FM222100 36022G32KT P6SM -SHSN BKN020 OVC090
RMK NXT FCST BY 222000Z


Example: see airport list